Barao de Melgaco, Brazil
Current Conditions -  °F | °C
As of 5:00 PM on Sunday 25 Jan 2015 (Local Time) from SBCY Reporting Station
Scattered Clouds Scattered Clouds  
Wind Chill: 90°   Ceiling: Unl
Heat Index: 92°   Visibility: 6mi
Dew Point: 66°   Wind: 9mph
Humidity: 46%   Direction: 350°N
Pressure: 29.8"   Gusts: NA
Location:  16.19°S, 55.97°W
Report Text: SBCY 252000Z 35008KT 9999 SCT020 32/19 Q1009
Loading
Personal Weather Stations






























Interactive Weather Map New forecast layout! Learn more

10-Day Weather Forecast

Advertisements
Track Severe Weather on mobile